Time;durP1;ratioP1;P1;durP2;ratioP2;P2;SDS_P1;SDS_P2;PMS_P1;PMS_P2;Temp;Humidity;BMP_temperature;BMP_pressure;BME280_temperature;BME280_humidity;BME280_pressure;Samples;Min_cycle;Max_cycle;Signal;HPM_P1;HPM_P2
2021/07/01 00:02:09;;;;;;;9.68;6.37;;;;;;;20.50;87.77;98819.85;1652716;86;20953;-83
2021/07/01 00:04:35;;;;;;;17.05;6.25;;;;;;;20.48;87.93;98806.31;1652750;86;21155;-83
2021/07/01 00:07:04;;;;;;;11.53;6.97;;;;;;;20.46;88.40;98810.09;1652755;86;21023;-83
2021/07/01 00:09:30;;;;;;;10.78;6.25;;;;;;;20.44;88.65;98797.16;1652806;86;20983;-82
2021/07/01 00:12:00;;;;;;;8.63;6.15;;;;;;;20.41;89.17;98780.63;1652938;86;21463;-81
2021/07/01 00:14:26;;;;;;;6.78;5.92;;;;;;;20.35;89.74;98755.72;1653050;86;20908;-81
2021/07/01 00:16:54;;;;;;;8.85;5.92;;;;;;;20.31;90.13;98745.77;1652828;86;20956;-77
2021/07/01 00:19:22;;;;;;;9.58;6.37;;;;;;;20.26;90.60;98728.06;1652741;86;21557;-82
2021/07/01 00:21:48;;;;;;;11.03;7.00;;;;;;;20.20;90.78;98726.30;1652880;86;20928;-79
2021/07/01 00:24:15;;;;;;;12.33;6.85;;;;;;;20.10;91.11;98743.82;1652889;86;20967;-80
2021/07/01 00:26:42;;;;;;;10.15;7.28;;;;;;;20.01;91.59;98730.30;1652849;86;20920;-84
2021/07/01 00:29:08;;;;;;;17.50;7.22;;;;;;;19.97;91.92;98728.70;1653022;86;22096;-84
2021/07/01 00:31:36;;;;;;;8.50;6.58;;;;;;;19.95;92.34;98735.27;1652751;86;21519;-82
2021/07/01 00:34:03;;;;;;;11.97;7.25;;;;;;;19.90;92.66;98741.23;1652860;86;21003;-85
2021/07/01 00:36:29;;;;;;;11.40;6.17;;;;;;;19.85;92.83;98734.66;1652878;86;21478;-79
2021/07/01 00:38:56;;;;;;;11.45;7.00;;;;;;;19.84;92.92;98732.47;1652858;86;20928;-82
2021/07/01 00:41:22;;;;;;;13.05;7.17;;;;;;;19.81;92.96;98717.16;1652824;86;22078;-83
2021/07/01 00:43:50;;;;;;;13.32;7.95;;;;;;;19.78;93.09;98712.58;1652836;86;20991;-84
2021/07/01 00:46:17;;;;;;;8.95;6.72;;;;;;;19.72;93.12;98718.34;1652889;86;21482;-84
2021/07/01 00:48:45;;;;;;;11.08;6.53;;;;;;;19.67;93.26;98706.20;1652830;86;20971;-85
2021/07/01 00:51:11;;;;;;;12.45;7.15;;;;;;;19.65;93.59;98698.05;1652943;86;20932;-83
2021/07/01 00:53:38;;;;;;;10.03;5.92;;;;;;;19.62;93.72;98691.91;1653055;86;21497;-83
2021/07/01 00:56:05;;;;;;;8.48;5.97;;;;;;;19.55;93.94;98684.34;1652725;86;20908;-81
2021/07/01 00:58:32;;;;;;;14.93;6.67;;;;;;;19.51;94.33;98684.94;1653130;86;21020;-81
2021/07/01 01:01:01;;;;;;;10.45;6.12;;;;;;;19.47;94.12;98692.45;1656029;86;20932;-79
2021/07/01 01:03:31;;;;;;;9.70;6.37;;;;;;;19.38;94.24;98694.83;1654043;86;21105;-77
2021/07/01 01:05:58;;;;;;;8.05;6.40;;;;;;;19.32;94.98;98693.62;1654356;86;21216;-78
2021/07/01 01:08:25;;;;;;;12.40;6.72;;;;;;;19.30;95.10;98686.27;1629736;86;21007;-78
2021/07/01 01:10:53;;;;;;;10.35;6.58;;;;;;;19.26;95.01;98695.20;1666639;86;20998;-79
2021/07/01 01:13:37;;;;;;;12.45;6.87;;;;;;;19.19;94.84;98688.22;1656738;85;21084;-79
2021/07/01 01:16:16;;;;;;;8.20;6.40;;;;;;;19.08;95.28;98688.20;1655444;85;21447;-80
2021/07/01 01:18:45;;;;;;;11.60;7.08;;;;;;;19.01;95.82;98681.25;1662444;85;20955;-79
2021/07/01 01:21:17;;;;;;;9.68;6.72;;;;;;;18.96;96.01;98681.03;1659268;85;20956;-79
2021/07/01 01:23:43;;;;;;;7.83;6.87;;;;;;;18.93;96.36;98669.30;1662158;85;21586;-78
2021/07/01 01:26:10;;;;;;;12.98;7.05;;;;;;;18.90;96.66;98665.91;1660378;85;21074;-78
2021/07/01 01:28:57;;;;;;;8.68;6.40;;;;;;;18.86;96.97;98667.09;1655831;85;20931;-78
2021/07/01 01:31:26;;;;;;;10.43;6.67;;;;;;;18.84;97.43;98665.30;1653039;86;20951;-77
2021/07/01 01:33:55;;;;;;;9.43;6.80;;;;;;;18.80;97.65;98658.33;1630561;86;20992;-78
2021/07/01 01:36:21;;;;;;;11.50;7.70;;;;;;;18.76;97.94;98654.74;1653899;85;21123;-78
2021/07/01 01:38:51;;;;;;;14.03;6.85;;;;;;;18.74;98.34;98651.56;1653409;86;21538;-78
2021/07/01 01:41:31;;;;;;;9.10;6.70;;;;;;;18.68;98.84;98654.51;1653326;86;21027;-78
2021/07/01 01:43:58;;;;;;;10.50;7.35;;;;;;;18.64;99.47;98660.65;1653862;86;21099;-78
2021/07/01 01:46:37;;;;;;;10.05;7.22;;;;;;;18.61;100.00;98654.48;1652816;85;21029;-78
2021/07/01 01:49:05;;;;;;;11.85;6.72;;;;;;;18.60;100.00;98655.64;1627457;86;21092;-79
2021/07/01 01:51:32;;;;;;;10.93;7.22;;;;;;;18.57;100.00;98659.20;1658642;85;21588;-79
2021/07/01 01:54:01;;;;;;;10.60;6.87;;;;;;;18.56;100.00;98677.06;1660819;86;21212;-80
2021/07/01 01:56:36;;;;;;;11.15;7.12;;;;;;;18.56;100.00;98686.20;1657544;85;21961;-81
2021/07/01 01:59:06;;;;;;;8.48;7.10;;;;;;;18.57;100.00;98686.98;1661106;85;21794;-81
2021/07/01 02:01:51;;;;;;;8.58;7.03;;;;;;;18.58;100.00;98685.21;1646029;86;21045;-79
2021/07/01 02:04:19;;;;;;;11.40;7.42;;;;;;;18.56;100.00;98678.45;1605024;87;21162;-79
2021/07/01 02:06:47;;;;;;;13.18;7.95;;;;;;;18.52;100.00;98679.02;1614734;87;21025;-78
2021/07/01 02:09:16;;;;;;;11.93;8.38;;;;;;;18.51;100.00;98688.55;1615209;87;21531;-78
2021/07/01 02:11:46;;;;;;;12.07;7.62;;;;;;;18.54;100.00;98705.83;1606745;87;20961;-77
2021/07/01 02:14:16;;;;;;;14.83;8.33;;;;;;;18.55;100.00;98737.41;1612917;87;20998;-79
2021/07/01 02:16:48;;;;;;;9.70;8.30;;;;;;;18.56;100.00;98777.91;1557923;87;20941;-77
2021/07/01 02:19:15;;;;;;;12.03;8.13;;;;;;;18.53;100.00;98775.11;1599986;88;21560;-80
2021/07/01 02:21:42;;;;;;;15.53;9.10;;;;;;;18.47;100.00;98760.22;1613689;87;21130;-83
2021/07/01 02:24:10;;;;;;;16.20;8.48;;;;;;;18.49;100.00;98771.72;1637424;87;21559;-84
2021/07/01 02:26:36;;;;;;;13.88;9.00;;;;;;;18.52;100.00;98779.08;1627108;87;20942;-84
2021/07/01 02:29:03;;;;;;;17.30;8.80;;;;;;;18.52;100.00;98766.56;1621511;88;21513;-84
2021/07/01 02:31:31;;;;;;;12.85;8.58;;;;;;;18.57;100.00;98767.59;1640014;87;21572;-83
2021/07/01 02:33:57;;;;;;;13.08;8.33;;;;;;;18.61;100.00;98765.66;1647916;87;21167;-83
2021/07/01 02:36:26;;;;;;;11.50;9.33;;;;;;;18.66;100.00;98759.73;1645568;86;21070;-82
2021/07/01 02:39:07;;;;;;;14.18;7.95;;;;;;;18.70;100.00;98751.63;1640499;87;20936;-82
2021/07/01 02:41:32;;;;;;;10.25;8.13;;;;;;;18.75;100.00;98768.53;1648093;86;21007;-83
2021/07/01 02:44:00;;;;;;;12.33;7.85;;;;;;;18.78;100.00;98766.36;1648046;87;20951;-83
2021/07/01 02:46:45;;;;;;;8.98;7.78;;;;;;;18.83;100.00;98765.19;1648172;86;22230;-82
2021/07/01 02:49:15;;;;;;;10.65;7.95;;;;;;;18.88;100.00;98753.70;1647965;87;20948;-85
2021/07/01 02:51:43;;;;;;;11.00;7.28;;;;;;;18.91;100.00;98764.05;1648166;86;20964;-84
2021/07/01 02:54:10;;;;;;;10.72;8.13;;;;;;;18.92;100.00;98770.61;1648040;87;21546;-86
2021/07/01 02:56:42;;;;;;;12.75;8.25;;;;;;;18.97;100.00;98778.58;1648257;86;20935;-85
2021/07/01 02:59:13;;;;;;;15.78;8.75;;;;;;;19.02;100.00;98793.50;1648093;86;22163;-86
2021/07/01 03:01:48;;;;;;;10.98;8.58;;;;;;;19.11;100.00;98798.68;1648452;86;20956;-86
2021/07/01 03:04:16;;;;;;;11.95;8.23;;;;;;;19.16;100.00;98801.09;1648536;86;20934;-85
2021/07/01 03:06:44;;;;;;;10.65;8.25;;;;;;;19.21;100.00;98794.34;1648253;87;21518;-85
2021/07/01 03:09:11;;;;;;;17.27;8.93;;;;;;;19.27;100.00;98796.96;1648011;87;20971;-86
2021/07/01 03:11:39;;;;;;;14.93;9.00;;;;;;;19.31;100.00;98795.78;1648025;87;21476;-84
2021/07/01 03:14:06;;;;;;;12.00;9.18;;;;;;;19.38;100.00;98789.45;1648037;87;20877;-86
2021/07/01 03:16:33;;;;;;;12.95;9.48;;;;;;;19.43;100.00;98794.64;1648243;87;20967;-85
2021/07/01 03:19:00;;;;;;;17.95;9.90;;;;;;;19.47;100.00;98794.05;1648007;86;21099;-79
2021/07/01 03:21:45;;;;;;;15.10;10.08;;;;;;;19.50;100.00;98803.01;1648080;86;21538;-82
2021/07/01 03:24:13;;;;;;;13.78;10.28;;;;;;;19.52;100.00;98808.22;1648060;87;21517;-87
2021/07/01 03:26:40;;;;;;;17.73;10.28;;;;;;;19.55;100.00;98813.80;1655941;85;20943;-82
2021/07/01 03:29:08;;;;;;;15.90;9.80;;;;;;;19.58;100.00;98810.82;1649186;86;20873;-78
2021/07/01 03:31:36;;;;;;;17.95;10.63;;;;;;;19.61;100.00;98815.00;1647665;86;20976;-78
2021/07/01 03:34:02;;;;;;;16.90;10.82;;;;;;;19.66;100.00;98817.97;1653926;86;21290;-84
2021/07/01 03:36:29;;;;;;;18.25;10.53;;;;;;;19.67;100.00;98820.36;1658391;85;21566;-82
2021/07/01 03:39:05;;;;;;;14.13;10.58;;;;;;;19.68;100.00;98814.99;1651713;86;20938;-84
2021/07/01 03:41:33;;;;;;;15.45;10.98;;;;;;;19.72;100.00;98818.58;1647821;86;20927;-82
2021/07/01 03:44:00;;;;;;;17.85;10.35;;;;;;;19.74;99.80;98811.23;1635338;86;21566;-84
2021/07/01 03:46:27;;;;;;;15.23;11.00;;;;;;;19.78;99.46;98813.42;1622815;88;20880;-83
2021/07/01 03:48:53;;;;;;;13.98;9.70;;;;;;;19.80;99.39;98809.65;1626895;88;21761;-85
2021/07/01 03:51:39;;;;;;;17.10;9.78;;;;;;;19.83;99.23;98808.86;1613918;86;20937;-81
2021/07/01 03:54:16;;;;;;;15.08;10.03;;;;;;;19.86;99.31;98808.66;1593631;87;21481;-82
2021/07/01 03:56:42;;;;;;;20.00;9.98;;;;;;;19.91;99.51;98820.22;1611900;88;21034;-84
2021/07/01 03:59:14;;;;;;;20.10;11.65;;;;;;;19.97;98.98;98824.20;1597078;87;21045;-84
2021/07/01 04:02:00;;;;;;;12.20;10.38;;;;;;;20.00;98.46;98829.58;1631869;87;21121;-85
2021/07/01 04:04:27;;;;;;;16.52;10.82;;;;;;;20.04;98.27;98828.39;1622281;87;21096;-82
2021/07/01 04:06:54;;;;;;;19.62;10.30;;;;;;;20.05;97.85;98822.23;1624049;87;21025;-84
2021/07/01 04:09:22;;;;;;;16.40;10.63;;;;;;;20.04;97.95;98827.59;1631798;88;21046;-85
2021/07/01 04:11:57;;;;;;;19.17;10.38;;;;;;;20.05;98.03;98826.41;1609800;88;21430;-83
2021/07/01 04:14:24;;;;;;;13.10;10.23;;;;;;;20.06;98.02;98826.61;1631857;88;21522;-83
2021/07/01 04:16:56;;;;;;;16.00;10.00;;;;;;;20.08;98.00;98826.41;1606720;88;21465;-84
2021/07/01 04:19:42;;;;;;;16.95;9.93;;;;;;;20.10;97.75;98821.23;1591882;90;20955;-81
2021/07/01 04:22:16;;;;;;;17.12;10.68;;;;;;;20.13;97.67;98825.81;1553628;90;21014;-80
2021/07/01 04:25:01;;;;;;;14.98;9.70;;;;;;;20.19;97.69;98827.81;1610448;88;21021;-79
2021/07/01 04:27:29;;;;;;;20.95;9.88;;;;;;;20.27;97.45;98822.41;1627697;88;21156;-81
2021/07/01 04:29:55;;;;;;;13.22;9.30;;;;;;;20.36;97.11;98819.23;1628490;88;20950;-80
2021/07/01 04:32:23;;;;;;;12.33;9.58;;;;;;;20.44;96.96;98818.86;1628377;88;21010;-80
2021/07/01 04:34:51;;;;;;;12.18;9.35;;;;;;;20.53;96.24;98819.05;1628564;88;21543;-79
2021/07/01 04:37:18;;;;;;;23.22;9.60;;;;;;;20.60;95.55;98821.84;1628557;88;21074;-84
2021/07/01 04:39:49;;;;;;;15.40;9.93;;;;;;;20.65;94.58;98822.23;1628685;88;21140;-83
2021/07/01 04:42:18;;;;;;;14.90;10.30;;;;;;;20.70;94.02;98834.37;1628035;88;20929;-81
2021/07/01 04:44:44;;;;;;;17.77;9.33;;;;;;;20.74;94.05;98830.19;1631747;88;21579;-81
2021/07/01 04:47:12;;;;;;;14.23;9.33;;;;;;;20.83;93.89;98842.30;1628305;88;21032;-83
2021/07/01 04:49:40;;;;;;;12.80;9.43;;;;;;;20.89;93.42;98841.48;1628440;88;21072;-83
2021/07/01 04:52:12;;;;;;;;;;;;;;;20.94;92.99;98840.28;1577331;88;21198;-83
2021/07/01 04:54:57;;;;;;;13.00;8.63;;;;;;;20.98;92.09;98844.66;1628495;88;20157;-82
2021/07/01 04:57:42;;;;;;;15.25;9.15;;;;;;;21.02;91.72;98841.86;1628441;88;20981;-83
2021/07/01 05:00:09;;;;;;;16.42;9.08;;;;;;;21.05;91.48;98843.25;1628834;88;20950;-82
2021/07/01 05:02:43;;;;;;;15.45;9.98;;;;;;;21.09;91.29;98846.03;1581967;88;21596;-81
2021/07/01 05:05:12;;;;;;;16.42;9.60;;;;;;;21.12;91.17;98849.41;1616849;88;21765;-82
2021/07/01 05:07:44;;;;;;;14.03;10.75;;;;;;;21.15;90.98;98855.58;1628472;88;20890;-82
2021/07/01 05:10:14;;;;;;;20.17;10.60;;;;;;;21.16;90.79;98849.41;1631707;88;20942;-81
2021/07/01 05:12:47;;;;;;;12.65;9.93;;;;;;;21.15;90.81;98854.78;1620694;88;21510;-74
2021/07/01 05:15:14;;;;;;;16.17;10.90;;;;;;;21.13;91.12;98862.77;1628416;88;21045;-77
2021/07/01 05:17:43;;;;;;;16.23;9.83;;;;;;;21.08;91.44;98861.98;1628519;88;20958;-77
2021/07/01 05:20:11;;;;;;;20.25;11.88;;;;;;;21.06;91.91;98867.16;1628412;88;21008;-77
2021/07/01 05:22:39;;;;;;;15.38;12.50;;;;;;;21.07;92.26;98867.36;1628888;88;20925;-78
2021/07/01 05:25:19;;;;;;;14.80;12.30;;;;;;;21.08;92.20;98866.77;1603897;88;20938;-83
2021/07/01 05:28:10;;;;;;;14.50;11.93;;;;;;;21.05;92.30;98858.59;1628542;88;21061;-80
2021/07/01 05:30:55;;;;;;;15.93;11.48;;;;;;;21.05;92.88;98863.38;1628453;88;21051;-80
2021/07/01 05:33:40;;;;;;;17.55;11.85;;;;;;;21.05;92.51;98870.36;1628389;88;21056;-77
2021/07/01 05:36:07;;;;;;;18.52;12.23;;;;;;;21.03;92.83;98869.36;1628977;86;21441;-77
2021/07/01 05:38:34;;;;;;;18.73;12.70;;;;;;;21.11;92.77;98874.33;1632258;88;21030;-76
2021/07/01 05:41:01;;;;;;;17.82;11.88;;;;;;;21.16;92.92;98875.91;1628817;88;20989;-84
2021/07/01 05:43:28;;;;;;;16.87;11.00;;;;;;;21.23;92.47;98880.91;1640412;86;21564;-79
2021/07/01 05:45:55;;;;;;;26.37;10.98;;;;;;;21.27;91.52;98889.27;1653703;85;21003;-83
2021/07/01 05:48:23;;;;;;;18.27;11.05;;;;;;;21.27;91.80;98883.09;1650420;86;21510;-89
2021/07/01 05:50:54;;;;;;;14.45;10.32;;;;;;;21.33;91.91;98872.31;1657046;85;21013;-84
2021/07/01 05:53:29;;;;;;;14.47;11.30;;;;;;;21.38;91.47;98869.86;1655407;85;20944;-84
2021/07/01 05:55:54;;;;;;;20.60;13.18;;;;;;;21.44;91.20;98874.44;1651841;85;22129;-84
2021/07/01 05:58:21;;;;;;;32.55;14.20;;;;;;;21.50;90.91;98874.21;1659522;86;21558;-85
2021/07/01 06:00:47;;;;;;;21.52;15.50;;;;;;;21.56;91.06;98875.38;1659660;85;21002;-84
2021/07/01 06:03:13;;;;;;;22.07;11.08;;;;;;;21.65;90.76;98870.77;1657099;85;20989;-77
2021/07/01 06:05:50;;;;;;;13.28;10.30;;;;;;;21.73;89.74;98871.72;1633214;86;21041;-83
2021/07/01 06:08:37;;;;;;;15.60;10.55;;;;;;;21.80;88.37;98882.66;1621709;85;21501;-83
2021/07/01 06:11:06;;;;;;;18.77;12.20;;;;;;;21.87;88.36;98878.44;1637594;86;20985;-85
2021/07/01 06:13:38;;;;;;;14.28;10.48;;;;;;;21.97;87.35;98871.97;1637868;86;20957;-77
2021/07/01 06:16:04;;;;;;;;;;;;;;;22.05;87.66;98869.35;1640270;86;21053;-77
2021/07/01 06:18:32;;;;;;;16.05;11.08;;;;;;;22.20;87.28;98871.45;1628119;85;20180;-81
2021/07/01 06:20:58;;;;;;;16.60;9.83;;;;;;;22.36;87.52;98872.53;1644892;85;21158;-73
2021/07/01 06:23:25;;;;;;;15.38;9.48;;;;;;;22.52;85.98;98864.23;1668667;85;21024;-77
2021/07/01 06:25:54;;;;;;;19.15;9.85;;;;;;;22.63;84.65;98864.30;1669142;85;21030;-84
2021/07/01 06:28:22;;;;;;;13.20;8.08;;;;;;;22.76;83.88;98863.80;1632559;87;21031;-83
2021/07/01 06:30:48;;;;;;;14.93;8.78;;;;;;;22.91;83.07;98866.08;1645018;87;20962;-83
2021/07/01 06:33:17;;;;;;;11.78;7.70;;;;;;;23.12;81.54;98862.84;1646575;87;21626;-83
2021/07/01 06:35:49;;;;;;;15.03;6.95;;;;;;;23.29;80.05;98854.85;1648175;87;21018;-83
2021/07/01 06:38:19;;;;;;;8.65;5.87;;;;;;;23.41;78.68;98859.91;1647946;87;20978;-84
2021/07/01 06:41:13;;;;;;;12.95;7.42;;;;;;;23.58;77.30;98859.54;1648065;86;20986;-83
2021/07/01 06:43:56;;;;;;;15.08;7.97;;;;;;;23.77;75.50;98856.66;1648260;87;20930;-82
2021/07/01 06:46:40;;;;;;;13.45;7.37;;;;;;;23.93;75.30;98856.23;1648167;87;22122;-82
2021/07/01 06:49:30;;;;;;;13.78;7.00;;;;;;;24.07;74.65;98851.03;1569391;90;21489;-83
2021/07/01 06:52:15;;;;;;;9.80;6.30;;;;;;;24.15;74.70;98846.11;1525124;93;21069;-83
2021/07/01 06:55:02;;;;;;;11.50;7.20;;;;;;;24.27;74.03;98844.13;1603064;84;21562;-83
2021/07/01 06:57:40;;;;;;;8.73;6.55;;;;;;;24.37;72.99;98837.55;1621044;86;21030;-82
2021/07/01 07:00:10;;;;;;;8.15;6.28;;;;;;;24.48;73.49;98841.59;1631936;86;21147;-83
2021/07/01 07:02:37;;;;;;;6.70;5.95;;;;;;;24.52;71.67;98835.31;1643606;86;21036;-82
2021/07/01 07:05:10;;;;;;;13.60;7.08;;;;;;;24.49;69.79;98827.13;1649639;85;21083;-84
2021/07/01 07:07:36;;;;;;;33.08;8.85;;;;;;;24.47;71.24;98824.58;1640415;85;21036;-83
2021/07/01 07:10:05;;;;;;;22.50;6.70;;;;;;;24.45;71.77;98813.78;1646853;85;21597;-82
2021/07/01 07:12:38;;;;;;;15.13;6.78;;;;;;;24.45;72.01;98803.17;1640377;86;21543;-81
2021/07/01 07:15:03;;;;;;;9.90;5.83;;;;;;;24.49;72.51;98806.09;1637256;85;21613;-84
2021/07/01 07:17:34;;;;;;;12.53;6.05;;;;;;;24.57;70.87;98803.96;1619844;87;21059;-82
2021/07/01 07:20:00;;;;;;;7.70;6.15;;;;;;;24.67;71.55;98800.97;1649043;86;21490;-82
2021/07/01 07:22:29;;;;;;;18.77;6.70;;;;;;;24.81;70.50;98797.72;1642445;86;20890;-82
2021/07/01 07:25:03;;;;;;;11.45;6.42;;;;;;;24.95;70.74;98798.21;1632859;86;21605;-82
2021/07/01 07:27:31;;;;;;;8.63;6.55;;;;;;;25.13;69.94;98801.32;1636794;85;21001;-83
2021/07/01 07:29:58;;;;;;;12.50;6.22;;;;;;;25.25;68.62;98804.27;1631793;86;20985;-83
2021/07/01 07:32:27;;;;;;;11.80;6.17;;;;;;;25.32;69.00;98796.31;1639277;85;21122;-82
2021/07/01 07:34:54;;;;;;;10.93;6.80;;;;;;;25.44;67.35;98790.02;1627552;86;21559;-82
2021/07/01 07:37:21;;;;;;;9.30;5.83;;;;;;;25.58;66.27;98800.16;1639164;86;21197;-84
2021/07/01 07:39:48;;;;;;;7.15;6.22;;;;;;;25.68;66.73;98806.19;1652520;86;20892;-82
2021/07/01 07:42:16;;;;;;;11.05;6.65;;;;;;;25.80;66.10;98809.73;1642707;86;20970;-82
2021/07/01 07:44:43;;;;;;;17.23;6.03;;;;;;;25.83;66.67;98806.05;1632601;87;21529;-83
2021/07/01 07:47:15;;;;;;;9.85;6.55;;;;;;;25.91;67.39;98807.47;1633944;87;21018;-83
2021/07/01 07:49:42;;;;;;;9.80;6.62;;;;;;;26.00;64.93;98813.88;1638625;86;21173;-82
2021/07/01 07:52:11;;;;;;;14.05;6.22;;;;;;;25.96;64.88;98816.80;1657527;86;20978;-82
2021/07/01 07:54:47;;;;;;;12.20;6.30;;;;;;;25.95;66.18;98810.20;1647902;87;21352;-84
2021/07/01 07:57:14;;;;;;;8.83;6.08;;;;;;;26.00;64.69;98806.84;1647956;85;21493;-82
2021/07/01 07:59:43;;;;;;;10.25;6.12;;;;;;;26.07;63.54;98797.44;1648126;86;20977;-85
2021/07/01 08:02:34;;;;;;;9.78;6.30;;;;;;;26.06;63.12;98794.45;1648000;86;21170;-84
2021/07/01 08:05:01;;;;;;;12.05;5.90;;;;;;;26.12;63.96;98794.11;1642638;85;21021;-85
2021/07/01 08:07:27;;;;;;;12.68;6.25;;;;;;;26.28;62.93;98794.12;1624484;87;20954;-84
2021/07/01 08:09:54;;;;;;;14.07;5.58;;;;;;;26.40;63.24;98789.84;1606047;89;20965;-83
2021/07/01 08:12:20;;;;;;;13.03;6.25;;;;;;;26.49;61.09;98792.20;1606053;88;21485;-79
2021/07/01 08:14:48;;;;;;;18.87;6.50;;;;;;;26.56;61.61;98799.67;1605934;89;20950;-84
2021/07/01 08:17:15;;;;;;;19.37;6.00;;;;;;;26.64;60.22;98789.17;1605823;88;21469;-84
2021/07/01 08:19:41;;;;;;;17.57;6.22;;;;;;;26.72;60.92;98791.18;1605843;89;20958;-81
2021/07/01 08:22:09;;;;;;;6.97;5.00;;;;;;;26.83;59.25;98798.72;1605937;89;21079;-85
2021/07/01 08:24:36;;;;;;;8.35;4.58;;;;;;;26.95;58.85;98795.80;1605900;89;21453;-84
2021/07/01 08:27:03;;;;;;;7.62;4.97;;;;;;;27.01;57.63;98801.70;1623577;85;21161;-82
2021/07/01 08:29:29;;;;;;;7.58;4.05;;;;;;;27.08;58.89;98802.92;1621569;88;21042;-82
2021/07/01 08:32:06;;;;;;;11.50;4.50;;;;;;;27.21;58.39;98797.47;1632723;85;21533;-84
2021/07/01 08:34:35;;;;;;;7.30;4.87;;;;;;;27.39;58.48;98794.77;1648295;87;21025;-82
2021/07/01 08:37:02;;;;;;;7.80;4.67;;;;;;;27.67;56.42;98793.95;1633411;87;20957;-85
2021/07/01 08:39:32;;;;;;;14.28;4.75;;;;;;;27.89;55.15;98794.05;1606270;89;21500;-85
2021/07/01 08:41:57;;;;;;;6.28;3.75;;;;;;;28.16;53.66;98780.28;1595202;89;20993;-85
2021/07/01 08:44:31;;;;;;;5.35;4.03;;;;;;;28.46;53.34;98783.12;1624069;86;21017;-83
2021/07/01 08:47:12;;;;;;;8.68;4.22;;;;;;;28.81;54.54;98779.69;1633020;86;21500;-80
2021/07/01 08:49:51;;;;;;;9.15;3.60;;;;;;;29.28;53.33;98780.22;1648208;85;21022;-84
2021/07/01 08:52:25;;;;;;;7.67;3.55;;;;;;;29.63;50.71;98774.45;1650629;85;21090;-84
2021/07/01 08:55:07;;;;;;;5.58;3.00;;;;;;;29.82;48.75;98768.43;1649220;85;20900;-83
2021/07/01 08:57:36;;;;;;;5.03;2.55;;;;;;;29.95;47.04;98771.78;1650846;85;21046;-87
2021/07/01 09:00:12;;;;;;;5.03;3.08;;;;;;;30.01;46.26;98773.56;1651834;85;21060;-85
2021/07/01 09:02:45;;;;;;;6.65;3.10;;;;;;;30.12;46.16;98779.55;1644649;85;20993;-85
2021/07/01 09:05:18;;;;;;;11.25;3.95;;;;;;;30.23;46.15;98777.08;1644326;87;21114;-85
2021/07/01 09:07:52;;;;;;;5.65;3.20;;;;;;;30.36;45.70;98774.75;1625464;85;21564;-88
2021/07/01 09:10:21;;;;;;;7.87;3.45;;;;;;;30.47;45.53;98766.59;1627147;87;20998;-84
2021/07/01 09:12:54;;;;;;;6.87;3.67;;;;;;;30.63;44.51;98758.44;1625445;86;21034;-87
2021/07/01 09:15:23;;;;;;;6.65;3.65;;;;;;;30.69;44.99;98760.80;1641169;86;21073;-87
2021/07/01 09:17:49;;;;;;;9.45;3.20;;;;;;;30.83;44.35;98755.30;1623292;85;21122;-83
2021/07/01 09:20:19;;;;;;;3.65;2.65;;;;;;;31.04;44.14;98757.03;1627017;86;21065;-86
2021/07/01 09:22:50;;;;;;;6.00;2.55;;;;;;;31.25;42.49;98753.22;1606671;86;21094;-83
2021/07/01 09:25:17;;;;;;;4.65;2.70;;;;;;;31.30;39.33;98751.17;1629775;86;21029;-79
2021/07/01 09:27:48;;;;;;;7.17;3.05;;;;;;;31.02;40.01;98759.55;1672203;84;21025;-86
2021/07/01 09:30:17;;;;;;;10.38;2.80;;;;;;;30.81;41.35;98754.98;1664139;85;21799;-84
2021/07/01 09:32:44;;;;;;;6.70;2.83;;;;;;;30.72;41.51;98755.61;1667927;84;21075;-84
2021/07/01 09:35:12;;;;;;;6.42;2.95;;;;;;;30.64;41.09;98745.84;1686572;84;21593;-82
2021/07/01 09:37:43;;;;;;;7.70;3.08;;;;;;;30.37;42.94;98751.63;1644217;84;21103;-82
2021/07/01 09:40:11;;;;;;;8.58;3.30;;;;;;;30.02;43.40;98755.34;1638829;84;21038;-83
2021/07/01 09:42:39;;;;;;;7.03;3.33;;;;;;;29.72;44.06;98757.53;1621741;86;21859;-81
2021/07/01 09:45:13;;;;;;;9.68;4.22;;;;;;;29.36;44.49;98747.60;1621748;87;20960;-85
2021/07/01 09:47:46;;;;;;;9.03;3.27;;;;;;;29.07;45.68;98738.61;1633409;86;21770;-81
2021/07/01 09:50:12;;;;;;;10.98;3.33;;;;;;;28.93;45.64;98739.92;1652708;86;21013;-83
2021/07/01 09:52:42;;;;;;;7.55;3.77;;;;;;;28.88;46.02;98737.06;1648116;86;20962;-84
2021/07/01 09:55:10;;;;;;;7.15;3.47;;;;;;;28.90;46.47;98737.39;1648022;87;21496;-88
2021/07/01 09:57:39;;;;;;;8.20;3.25;;;;;;;28.95;46.12;98743.70;1621368;88;21504;-88
2021/07/01 10:00:11;;;;;;;12.73;3.50;;;;;;;29.06;47.29;98739.86;1620585;88;20993;-89
2021/07/01 10:02:41;;;;;;;8.63;3.77;;;;;;;29.21;46.76;98742.32;1621455;87;21465;-87
2021/07/01 10:05:25;;;;;;;10.08;3.15;;;;;;;29.35;46.33;98746.03;1650742;85;21486;-87
2021/07/01 10:07:52;;;;;;;8.03;2.90;;;;;;;29.43;44.75;98743.13;1652063;85;21575;-89
2021/07/01 10:10:19;;;;;;;8.35;3.22;;;;;;;29.50;46.01;98742.81;1648247;85;21037;-88
2021/07/01 10:12:57;;;;;;;6.70;3.47;;;;;;;29.60;45.73;98735.17;1633419;87;20958;-81
2021/07/01 10:15:30;;;;;;;9.95;4.22;;;;;;;29.68;47.33;98737.88;1641006;87;21072;-86
2021/07/01 10:18:06;;;;;;;12.33;4.08;;;;;;;29.71;47.53;98733.33;1647992;87;20974;-79
2021/07/01 10:20:44;;;;;;;6.67;3.83;;;;;;;29.79;48.92;98728.97;1641202;87;21143;-86
2021/07/01 10:23:28;;;;;;;7.17;4.03;;;;;;;30.03;48.52;98725.78;1637769;87;20934;-89
2021/07/01 10:25:58;;;;;;;12.18;4.10;;;;;;;30.19;46.72;98725.48;1648000;87;21022;-89
2021/07/01 10:28:26;;;;;;;14.80;4.65;;;;;;;30.34;46.95;98718.59;1646697;86;20998;-83
2021/07/01 10:31:14;;;;;;;8.00;3.20;;;;;;;30.58;45.76;98712.36;1647848;87;21078;-84
2021/07/01 10:33:42;;;;;;;5.33;3.27;;;;;;;30.62;47.18;98710.16;1648074;86;21103;-86
2021/07/01 10:36:17;;;;;;;9.35;3.40;;;;;;;30.73;45.39;98713.27;1647854;87;20966;-84
2021/07/01 10:38:51;;;;;;;6.33;4.12;;;;;;;30.75;44.81;98712.96;1647913;86;20954;-87
2021/07/01 10:41:32;;;;;;;11.15;3.52;;;;;;;30.81;45.44;98713.91;1647717;87;20969;-83
2021/07/01 10:43:59;;;;;;;13.48;3.47;;;;;;;31.02;43.75;98717.03;1648180;87;21005;-85
2021/07/01 10:46:43;;;;;;;14.75;4.45;;;;;;;31.33;42.62;98715.41;1648219;87;21414;-80
2021/07/01 10:49:11;;;;;;;10.80;3.62;;;;;;;31.51;40.41;98723.23;1647299;87;38433;-81
2021/07/01 10:51:40;;;;;;;12.10;3.58;;;;;;;31.48;40.40;98712.84;1647851;87;20984;-82
2021/07/01 10:54:13;;;;;;;14.20;4.65;;;;;;;31.62;41.42;98723.35;1628168;87;21475;-83
2021/07/01 10:56:47;;;;;;;21.60;4.60;;;;;;;31.80;39.50;98705.63;1649373;85;20976;-84
2021/07/01 10:59:11;;;;;;;11.83;3.10;;;;;;;31.94;40.92;98711.23;1674779;85;24041;-86
2021/07/01 11:01:42;;;;;;;7.65;3.40;;;;;;;32.08;37.79;98721.88;1675543;85;20958;-85
2021/07/01 11:04:16;;;;;;;6.67;2.75;;;;;;;31.86;38.55;98724.20;1675389;85;20975;-85
2021/07/01 11:06:45;;;;;;;11.00;3.45;;;;;;;31.80;40.22;98712.72;1675362;85;21018;-85
2021/07/01 11:09:14;;;;;;;16.90;3.95;;;;;;;31.92;38.11;98718.66;1675394;85;21001;-84
2021/07/01 11:11:42;;;;;;;8.43;3.12;;;;;;;31.79;37.87;98718.24;1675579;85;21136;-85
2021/07/01 11:14:17;;;;;;;12.68;3.02;;;;;;;31.72;37.76;98722.88;1675285;85;21470;-87
2021/07/01 11:16:46;;;;;;;7.92;3.52;;;;;;;31.75;36.91;98712.62;1672539;85;20966;-88
2021/07/01 11:19:14;;;;;;;9.00;3.40;;;;;;;31.76;38.32;98706.46;1673593;85;21068;-86
2021/07/01 11:21:48;;;;;;;7.37;3.05;;;;;;;31.85;39.27;98702.77;1637150;85;21133;-87
2021/07/01 11:24:23;;;;;;;13.80;3.52;;;;;;;31.98;38.79;98700.48;1624706;85;21134;-84
2021/07/01 11:26:56;;;;;;;8.80;3.42;;;;;;;32.14;38.60;98702.14;1657455;85;20986;-86
2021/07/01 11:29:40;;;;;;;9.98;3.42;;;;;;;32.12;39.00;98703.25;1647970;87;21565;-86
2021/07/01 11:32:20;;;;;;;9.45;3.45;;;;;;;32.18;38.21;98696.43;1647766;87;20910;-86
2021/07/01 11:34:49;;;;;;;10.13;3.27;;;;;;;32.28;37.86;98696.41;1645760;87;21513;-85
2021/07/01 11:37:37;;;;;;;16.80;4.20;;;;;;;32.32;40.55;98699.84;1647975;87;21461;-85
2021/07/01 11:40:15;;;;;;;11.60;3.75;;;;;;;32.49;39.21;98687.53;1663220;84;21067;-85
2021/07/01 11:42:42;;;;;;;10.58;4.20;;;;;;;32.61;39.09;98684.28;1629504;85;20991;-86
2021/07/01 11:45:10;;;;;;;12.10;3.55;;;;;;;32.79;39.25;98690.48;1606936;87;21038;-85